To NAV CANADA Home Page Login to a new session Search on AWWS site Disclaimer Vers la page française équivalente Tips FAQ What's new on the site To the Forecasts and Observations / NOTAM section To "File a Flight Plan" website Publications and other links Update of the User's profile FIC Telephone Numbers My Weather Data Folder Route Weather Data Regional Weather Data Local Weather Data To the Forecasts and Observations / NOTAM section
Request Generated 10/21/2018 at 07:02:35 UTC . Weather information available at that time is displayed.

METAR/TAF

NORTH BAY/ON    (show WxCam)

METAR CYYB 210700Z AUTO 33016G21KT 9SM -SN FEW026 OVC044 M03/M06 A2994 RMK SLP158=
SPECI CYYB 210650Z AUTO 32014G20KT 9SM -SN FEW024 BKN044 M03/M05 A2994 RMK SLP158=
SPECI CYYB 210647Z AUTO 33014G20KT 9SM FEW024 BKN044 M03/M05 A2994 RMK SLP157=
METAR CYYB 210600Z AUTO 33013G22KT 9SM -SN FEW036 OVC043 M02/M07 A2992 RMK SLP150=
SPECI CYYB 210550Z AUTO 34015G21KT 9SM -SN OVC043 M02/M07 A2991 RMK SLP148=
SPECI CYYB 210539Z AUTO 34015G24KT 9SM FEW030 OVC043 M02/M08 A2991 RMK SLP146=
METAR CYYB 210500Z AUTO 34016G29KT 9SM -SN BKN036 OVC043 M02/M07 A2990 RMK SLP141=

TAF CYYB 210138Z 2102/2114 34012G22KT P6SM SCT020 TEMPO 2102/2114 5SM
-SHSN BKN020
BECMG 2106/2108 34008KT
RMK NXT FCST BY 210800Z=
Your time UTC time
Weather data provided by Environment Canada and NAV CANADA